createdAt,value
2018-11-10T00:00:25.295Z,94.17
2018-11-10T00:00:56.395Z,93.82
2018-11-10T00:01:27.504Z,92.75
2018-11-10T00:01:58.667Z,95.07
2018-11-10T00:02:29.802Z,94.80
2018-11-10T00:03:00.930Z,92.20
2018-11-10T00:03:32.070Z,91.25
2018-11-10T00:04:03.237Z,93.50
2018-11-10T00:04:34.371Z,92.80
2018-11-10T00:05:05.507Z,91.42
2018-11-10T00:05:36.629Z,91.25
2018-11-10T00:06:07.794Z,89.17
2018-11-10T00:06:38.906Z,91.08
2018-11-10T00:07:10.066Z,90.00
2018-11-10T00:07:41.224Z,84.92
2018-11-10T00:08:12.373Z,91.20
2018-11-10T00:08:43.476Z,87.88
2018-11-10T00:09:14.589Z,89.10
2018-11-10T00:09:45.745Z,87.27
2018-11-10T00:10:16.896Z,85.67
2018-11-10T00:10:48.022Z,87.67
2018-11-10T00:11:19.154Z,88.35
2018-11-10T00:11:50.306Z,89.15
2018-11-10T00:12:21.488Z,87.53
2018-11-10T00:12:52.593Z,89.72
2018-11-10T00:13:23.751Z,87.50
2018-11-10T00:13:54.887Z,88.95
2018-11-10T00:14:26.034Z,86.47
2018-11-10T00:14:57.150Z,88.92
2018-11-10T00:15:28.252Z,88.07
2018-11-10T00:15:59.355Z,86.50
2018-11-10T00:16:30.584Z,89.03
2018-11-10T00:17:01.719Z,87.72
2018-11-10T00:17:32.848Z,90.38
2018-11-10T00:18:03.952Z,87.90
2018-11-10T00:18:35.057Z,90.20
2018-11-10T00:19:06.188Z,87.10
2018-11-10T00:19:37.311Z,85.95
2018-11-10T00:20:08.460Z,85.50
2018-11-10T00:20:39.584Z,90.95
2018-11-10T00:21:10.758Z,90.20
2018-11-10T00:21:41.894Z,85.47
2018-11-10T00:22:13.789Z,89.10
2018-11-10T00:22:44.960Z,86.80
2018-11-10T00:23:16.121Z,87.92
2018-11-10T00:23:47.249Z,90.80
2018-11-10T00:24:18.354Z,91.17
2018-11-10T00:24:49.486Z,89.17
2018-11-10T00:25:20.637Z,90.95
2018-11-10T00:25:51.746Z,91.80
2018-11-10T00:26:22.851Z,88.95
2018-11-10T00:26:53.983Z,90.47
2018-11-10T00:27:25.091Z,88.07
2018-11-10T00:27:56.205Z,89.40
2018-11-10T00:28:27.384Z,89.03
2018-11-10T00:28:58.508Z,87.37
2018-11-10T00:29:29.637Z,86.82
2018-11-10T00:30:00.801Z,89.17
2018-11-10T00:30:31.918Z,87.62
2018-11-10T00:31:03.055Z,86.53
2018-11-10T00:31:34.179Z,86.00
2018-11-10T00:32:05.304Z,77.87
2018-11-10T00:32:36.419Z,68.92
2018-11-10T00:33:07.543Z,70.65
2018-11-10T00:33:38.711Z,74.37
2018-11-10T00:34:09.834Z,75.87
2018-11-10T00:34:40.989Z,78.00
2018-11-10T00:35:12.154Z,79.30
2018-11-10T00:35:43.288Z,81.22
2018-11-10T00:36:14.403Z,81.65
2018-11-10T00:36:45.531Z,81.85
2018-11-10T00:37:16.670Z,83.37
2018-11-10T00:37:47.793Z,84.90
2018-11-10T00:38:18.914Z,86.35
2018-11-10T00:38:50.117Z,82.80
2018-11-10T00:39:21.231Z,80.55
2018-11-10T00:39:52.367Z,80.77
2018-11-10T00:40:23.482Z,78.92
2018-11-10T00:40:54.633Z,79.27
2018-11-10T00:41:25.797Z,78.17
2018-11-10T00:41:57.019Z,78.37
2018-11-10T00:42:28.181Z,82.37
2018-11-10T00:42:59.346Z,78.78
2018-11-10T00:43:30.456Z,78.92
2018-11-10T00:44:01.638Z,80.97
2018-11-10T00:44:32.748Z,82.05
2018-11-10T00:45:03.850Z,82.30
2018-11-10T00:45:35.005Z,83.47
2018-11-10T00:46:06.130Z,81.80
2018-11-10T00:46:37.231Z,84.47
2018-11-10T00:47:08.378Z,82.97
2018-11-10T00:47:39.498Z,82.75
2018-11-10T00:48:10.611Z,84.22
2018-11-10T00:48:41.716Z,83.85
2018-11-10T00:49:12.836Z,84.77
2018-11-10T00:49:43.953Z,83.80
2018-11-10T00:50:15.130Z,84.30
2018-11-10T00:50:46.239Z,88.12
2018-11-10T00:51:17.392Z,86.65
2018-11-10T00:51:48.493Z,87.17
2018-11-10T00:52:19.607Z,86.65
2018-11-10T00:52:50.756Z,86.95
2018-11-10T00:53:21.863Z,86.87
2018-11-10T00:53:52.998Z,85.05
2018-11-10T00:54:24.127Z,89.10
2018-11-10T00:54:55.274Z,87.05
2018-11-10T00:55:26.449Z,88.85
2018-11-10T00:55:57.600Z,90.55
2018-11-10T00:56:28.795Z,88.60
2018-11-10T00:56:59.921Z,71.57
2018-11-10T00:57:31.076Z,79.22
2018-11-10T00:58:02.234Z,85.32
2018-11-10T00:58:33.369Z,83.25
2018-11-10T00:59:04.478Z,81.65
2018-11-10T00:59:35.595Z,84.50
2018-11-10T01:00:06.732Z,88.45
2018-11-10T01:00:37.910Z,87.55
2018-11-10T01:01:09.023Z,83.22
2018-11-10T01:01:40.184Z,83.17
2018-11-10T01:02:11.299Z,83.58
2018-11-10T01:02:42.409Z,83.27
2018-11-10T01:03:13.545Z,79.70
2018-11-10T01:03:44.675Z,76.72
2018-11-10T01:04:15.854Z,76.87
2018-11-10T01:04:47.014Z,80.12
2018-11-10T01:05:18.159Z,74.58
2018-11-10T01:05:49.319Z,74.17
2018-11-10T01:06:20.424Z,77.15
2018-11-10T01:06:51.556Z,81.87
2018-11-10T01:07:22.681Z,76.50
2018-11-10T01:07:53.806Z,77.00
2018-11-10T01:08:24.918Z,77.87
2018-11-10T01:08:56.068Z,81.35
2018-11-10T01:09:27.197Z,79.55
2018-11-10T01:09:58.306Z,78.80
2018-11-10T01:10:29.424Z,78.22
2018-11-10T01:11:00.554Z,78.90
2018-11-10T01:11:31.667Z,76.47
2018-11-10T01:12:02.777Z,74.77
2018-11-10T01:12:34.066Z,74.25
2018-11-10T01:13:05.192Z,76.00
2018-11-10T01:13:36.394Z,75.52
2018-11-10T01:14:09.396Z,75.15
2018-11-10T01:14:40.527Z,73.57
2018-11-10T01:15:11.634Z,74.10
2018-11-10T01:15:42.852Z,76.02
2018-11-10T01:16:13.995Z,76.77
2018-11-10T01:16:45.157Z,75.70
2018-11-10T01:17:16.321Z,76.02
2018-11-10T01:17:47.463Z,74.95
2018-11-10T01:18:18.606Z,74.67
2018-11-10T01:18:49.715Z,73.75
2018-11-10T01:19:20.856Z,77.08
2018-11-10T01:19:51.973Z,75.17
2018-11-10T01:20:23.099Z,74.80
2018-11-10T01:20:54.230Z,73.95
2018-11-10T01:21:25.362Z,72.15
2018-11-10T01:21:56.499Z,73.45
2018-11-10T01:22:27.645Z,73.95
2018-11-10T01:22:58.755Z,74.27
2018-11-10T01:23:29.887Z,73.57
2018-11-10T01:24:01.963Z,71.37
2018-11-10T01:24:33.098Z,70.85
2018-11-10T01:25:04.227Z,74.55
2018-11-10T01:25:35.338Z,75.15
2018-11-10T01:26:06.460Z,73.30
2018-11-10T01:26:37.564Z,72.47
2018-11-10T01:27:08.775Z,72.50
2018-11-10T01:27:39.907Z,73.75
2018-11-10T01:28:11.067Z,70.35
2018-11-10T01:28:42.240Z,70.50
2018-11-10T01:29:13.389Z,72.27
2018-11-10T01:29:44.482Z,70.75
2018-11-10T01:30:15.596Z,69.32
2018-11-10T01:30:46.724Z,71.05
2018-11-10T01:31:17.905Z,72.80
2018-11-10T01:31:49.037Z,72.58
2018-11-10T01:32:20.175Z,70.55
2018-11-10T01:32:51.322Z,72.85
2018-11-10T01:33:22.436Z,73.50
2018-11-10T01:33:53.534Z,73.87
2018-11-10T01:34:24.683Z,77.47
2018-11-10T01:34:55.786Z,74.60
2018-11-10T01:35:26.894Z,79.42
2018-11-10T01:35:58.038Z,75.00
2018-11-10T01:36:29.167Z,77.55
2018-11-10T01:37:00.272Z,76.37
2018-11-10T01:37:31.383Z,77.12
2018-11-10T01:38:02.574Z,77.10
2018-11-10T01:38:33.699Z,78.05
2018-11-10T01:39:04.833Z,77.12
2018-11-10T01:39:35.941Z,78.65
2018-11-10T01:40:07.074Z,80.03
2018-11-10T01:40:38.199Z,73.85
2018-11-10T01:41:09.355Z,74.62
2018-11-10T01:41:40.495Z,73.87
2018-11-10T01:42:11.611Z,76.30
2018-11-10T01:42:42.733Z,73.12
2018-11-10T01:43:13.885Z,73.47
2018-11-10T01:43:44.992Z,75.22
2018-11-10T01:44:16.124Z,73.45
2018-11-10T01:44:47.241Z,72.15
2018-11-10T01:45:18.345Z,74.05
2018-11-10T01:45:49.450Z,73.30
2018-11-10T01:46:20.561Z,71.97
2018-11-10T01:46:51.705Z,74.42
2018-11-10T01:47:22.848Z,73.97
2018-11-10T01:47:54.049Z,74.95
2018-11-10T01:48:25.220Z,72.80
2018-11-10T01:48:56.331Z,76.82
2018-11-10T01:49:27.446Z,74.62
2018-11-10T01:49:58.584Z,73.37
2018-11-10T01:50:29.692Z,63.63
2018-11-10T01:51:00.822Z,66.22
2018-11-10T01:51:31.929Z,67.32
2018-11-10T01:52:03.077Z,68.67
2018-11-10T01:52:34.178Z,71.82
2018-11-10T01:53:05.292Z,72.00
2018-11-10T01:53:36.468Z,69.80
2018-11-10T01:54:07.599Z,66.30
2018-11-10T01:54:38.724Z,66.50
2018-11-10T01:55:09.892Z,66.75
2018-11-10T01:55:41.437Z,67.92
2018-11-10T01:56:12.629Z,66.07
2018-11-10T01:56:43.764Z,65.25
2018-11-10T01:57:14.901Z,68.87
2018-11-10T01:57:46.130Z,71.05
2018-11-10T01:58:17.234Z,69.12
2018-11-10T01:58:48.363Z,69.65
2018-11-10T01:59:19.501Z,68.65
2018-11-10T01:59:50.614Z,67.10
2018-11-10T02:00:22.506Z,67.08
2018-11-10T02:00:53.622Z,68.62
2018-11-10T02:01:24.733Z,70.32
2018-11-10T02:01:55.841Z,72.72
2018-11-10T02:02:26.977Z,70.90
2018-11-10T02:02:58.088Z,68.90
2018-11-10T02:03:29.215Z,64.10
2018-11-10T02:04:00.350Z,63.17
2018-11-10T02:04:31.678Z,62.90
2018-11-10T02:05:02.779Z,62.93
2018-11-10T02:05:33.963Z,62.50
2018-11-10T02:06:05.120Z,64.90
2018-11-10T02:06:36.347Z,65.17
2018-11-10T02:07:07.505Z,63.68
2018-11-10T02:07:38.614Z,63.98
2018-11-10T02:08:09.763Z,64.80
2018-11-10T02:08:40.919Z,61.15
2018-11-10T02:09:12.032Z,62.85
2018-11-10T02:09:43.210Z,61.53
2018-11-10T02:10:14.303Z,60.88
2018-11-10T02:10:45.486Z,57.48
2018-11-10T02:11:16.604Z,56.85
2018-11-10T02:11:47.735Z,60.00
2018-11-10T02:12:18.844Z,59.58
2018-11-10T02:12:49.956Z,60.90
2018-11-10T02:13:21.072Z,62.20
2018-11-10T02:13:52.202Z,63.05
2018-11-10T02:14:23.338Z,62.33
2018-11-10T02:14:54.480Z,62.35
2018-11-10T02:15:25.674Z,64.77
2018-11-10T02:15:56.838Z,66.90
2018-11-10T02:16:27.952Z,65.92
2018-11-10T02:16:59.094Z,66.20
2018-11-10T02:17:30.286Z,66.25
2018-11-10T02:18:01.399Z,65.47
2018-11-10T02:18:32.551Z,67.92
2018-11-10T02:19:03.659Z,68.47
2018-11-10T02:19:34.791Z,67.58
2018-11-10T02:20:05.908Z,67.80
2018-11-10T02:20:37.055Z,68.85
2018-11-10T02:21:08.182Z,70.10
2018-11-10T02:21:39.304Z,66.47
2018-11-10T02:22:10.412Z,66.90
2018-11-10T02:22:41.574Z,64.07
2018-11-10T02:23:12.726Z,65.25
2018-11-10T02:23:43.880Z,64.85
2018-11-10T02:24:15.017Z,62.00
2018-11-10T02:24:46.155Z,63.42
2018-11-10T02:25:17.355Z,62.80
2018-11-10T02:25:48.519Z,61.50
2018-11-10T02:26:19.765Z,62.38
2018-11-10T02:26:50.885Z,65.95
2018-11-10T02:27:22.039Z,64.62
2018-11-10T02:27:53.179Z,64.20
2018-11-10T02:28:24.284Z,67.62
2018-11-10T02:28:55.442Z,64.70
2018-11-10T02:29:28.290Z,65.75
2018-11-10T02:29:59.408Z,65.37
2018-11-10T02:30:30.565Z,64.07
2018-11-10T02:31:01.672Z,66.12
2018-11-10T02:31:32.839Z,65.55
2018-11-10T02:32:03.941Z,65.57
2018-11-10T02:32:35.056Z,65.83
2018-11-10T02:33:06.188Z,66.82
2018-11-10T02:33:37.416Z,65.90
2018-11-10T02:34:08.525Z,66.72
2018-11-10T02:34:39.659Z,63.75
2018-11-10T02:35:10.810Z,61.40
2018-11-10T02:35:41.939Z,60.50
2018-11-10T02:36:13.056Z,59.88
2018-11-10T02:36:44.216Z,60.30
2018-11-10T02:37:15.347Z,60.85
2018-11-10T02:37:46.477Z,62.00
2018-11-10T02:38:17.611Z,64.20
2018-11-10T02:38:48.859Z,63.40
2018-11-10T02:39:19.919Z,62.83
2018-11-10T02:39:51.051Z,62.58
2018-11-10T02:40:22.190Z,63.92
2018-11-10T02:40:53.300Z,65.03
2018-11-10T02:41:24.425Z,62.58
2018-11-10T02:41:55.563Z,64.03
2018-11-10T02:42:26.677Z,67.67
2018-11-10T02:42:57.788Z,67.25
2018-11-10T02:43:28.897Z,66.50
2018-11-10T02:44:00.026Z,66.85
2018-11-10T02:44:31.910Z,67.15
2018-11-10T02:45:03.052Z,67.08
2018-11-10T02:45:34.176Z,65.57
2018-11-10T02:46:05.272Z,67.40
2018-11-10T02:46:36.404Z,67.05
2018-11-10T02:47:07.559Z,64.27
2018-11-10T02:47:38.719Z,66.25
2018-11-10T02:48:09.897Z,63.52
2018-11-10T02:48:41.035Z,63.70
2018-11-10T02:49:12.152Z,65.32
2018-11-10T02:49:43.284Z,65.57
2018-11-10T02:50:14.390Z,62.98
2018-11-10T02:50:45.543Z,61.18
2018-11-10T02:51:16.656Z,63.30
2018-11-10T02:51:47.809Z,64.58
2018-11-10T02:52:18.994Z,64.50
2018-11-10T02:52:50.184Z,63.78
2018-11-10T02:53:21.299Z,63.60
2018-11-10T02:53:52.428Z,64.82
2018-11-10T02:54:23.609Z,65.52
2018-11-10T02:54:54.751Z,64.55
2018-11-10T02:55:25.950Z,65.28
2018-11-10T02:55:57.101Z,66.50
2018-11-10T02:56:28.234Z,65.55
2018-11-10T02:56:59.390Z,66.62
2018-11-10T02:57:30.546Z,66.00
2018-11-10T02:58:01.684Z,68.02
2018-11-10T02:58:32.831Z,65.15
2018-11-10T02:59:03.954Z,65.85
2018-11-10T02:59:35.088Z,67.30
2018-11-10T03:00:06.243Z,66.77
2018-11-10T03:00:37.436Z,65.62
2018-11-10T03:01:08.573Z,67.25
2018-11-10T03:01:39.743Z,66.85
2018-11-10T03:02:10.916Z,68.35
2018-11-10T03:02:42.050Z,69.40
2018-11-10T03:03:13.180Z,69.10
2018-11-10T03:03:44.326Z,66.15
2018-11-10T03:04:15.433Z,66.92
2018-11-10T03:04:47.187Z,65.25
2018-11-10T03:05:18.310Z,67.97
2018-11-10T03:05:49.442Z,67.30
2018-11-10T03:06:20.603Z,67.00
2018-11-10T03:06:51.781Z,68.80
2018-11-10T03:07:22.923Z,68.28
2018-11-10T03:07:54.046Z,70.17
2018-11-10T03:08:25.174Z,68.83
2018-11-10T03:08:56.297Z,69.82
2018-11-10T03:09:27.409Z,67.15
2018-11-10T03:09:58.549Z,67.97
2018-11-10T03:10:29.706Z,67.08
2018-11-10T03:11:00.819Z,69.27
2018-11-10T03:11:32.000Z,67.45
2018-11-10T03:12:03.133Z,67.40
2018-11-10T03:12:34.241Z,68.12
2018-11-10T03:13:05.420Z,68.22
2018-11-10T03:13:36.536Z,68.72
2018-11-10T03:14:07.662Z,67.22
2018-11-10T03:14:38.818Z,66.25
2018-11-10T03:15:10.013Z,63.05
2018-11-10T03:15:41.138Z,64.55
2018-11-10T03:16:12.291Z,65.10
2018-11-10T03:16:43.404Z,66.82
2018-11-10T03:17:14.526Z,65.80
2018-11-10T03:17:45.659Z,62.20
2018-11-10T03:18:16.770Z,64.32
2018-11-10T03:18:47.889Z,58.33
2018-11-10T03:19:19.055Z,58.98
2018-11-10T03:19:50.173Z,60.63
2018-11-10T03:20:21.342Z,61.63
2018-11-10T03:20:52.467Z,62.35
2018-11-10T03:21:23.595Z,59.98
2018-11-10T03:21:54.750Z,61.05
2018-11-10T03:22:25.927Z,61.05
2018-11-10T03:22:57.078Z,61.88
2018-11-10T03:23:28.200Z,61.30
2018-11-10T03:23:59.322Z,63.80
2018-11-10T03:24:30.465Z,63.08
2018-11-10T03:25:01.589Z,63.52
2018-11-10T03:25:32.766Z,61.33
2018-11-10T03:26:03.878Z,61.63
2018-11-10T03:26:34.998Z,62.08
2018-11-10T03:27:06.134Z,57.98
2018-11-10T03:27:37.315Z,58.70
2018-11-10T03:28:08.426Z,59.33
2018-11-10T03:28:39.568Z,59.75
2018-11-10T03:29:10.705Z,60.85
2018-11-10T03:29:41.879Z,61.28
2018-11-10T03:30:13.027Z,61.53
2018-11-10T03:30:44.164Z,60.00
2018-11-10T03:31:15.294Z,60.95
2018-11-10T03:31:46.407Z,61.15
2018-11-10T03:32:17.548Z,59.80
2018-11-10T03:32:48.657Z,59.85
2018-11-10T03:33:19.798Z,59.23
2018-11-10T03:33:50.897Z,60.43
2018-11-10T03:34:22.025Z,60.65
2018-11-10T03:34:53.162Z,59.73
2018-11-10T03:35:24.294Z,59.03
2018-11-10T03:35:55.408Z,59.13
2018-11-10T03:36:26.531Z,57.20
2018-11-10T03:36:57.689Z,59.45
2018-11-10T03:37:28.804Z,58.40
2018-11-10T03:37:59.912Z,54.80
2018-11-10T03:38:31.073Z,55.05
2018-11-10T03:39:02.224Z,56.68
2018-11-10T03:39:33.331Z,54.75
2018-11-10T03:40:04.498Z,55.80
2018-11-10T03:40:35.664Z,54.42
2018-11-10T03:41:06.793Z,59.23
2018-11-10T03:41:37.941Z,56.77
2018-11-10T03:42:09.047Z,54.83
2018-11-10T03:42:40.148Z,55.88
2018-11-10T03:43:11.260Z,56.08
2018-11-10T03:43:42.397Z,53.10
2018-11-10T03:44:13.542Z,52.45
2018-11-10T03:44:44.674Z,51.83
2018-11-10T03:45:15.848Z,53.78
2018-11-10T03:45:46.990Z,51.77
2018-11-10T03:46:18.125Z,53.25
2018-11-10T03:46:49.247Z,53.85
2018-11-10T03:47:20.402Z,52.38
2018-11-10T03:47:51.541Z,55.65
2018-11-10T03:48:22.679Z,55.80
2018-11-10T03:48:53.939Z,54.10
2018-11-10T03:49:24.969Z,53.85
2018-11-10T03:49:56.087Z,57.48
2018-11-10T03:50:27.219Z,58.05
2018-11-10T03:50:58.361Z,50.10
2018-11-10T03:51:29.486Z,51.55
2018-11-10T03:52:00.655Z,51.75
2018-11-10T03:52:31.817Z,52.03
2018-11-10T03:53:02.923Z,56.18
2018-11-10T03:53:34.068Z,58.20
2018-11-10T03:54:05.235Z,49.80
2018-11-10T03:54:36.352Z,53.92
2018-11-10T03:55:07.536Z,59.48
2018-11-10T03:55:38.667Z,54.95
2018-11-10T03:56:09.808Z,53.55
2018-11-10T03:56:41.712Z,56.70
2018-11-10T03:57:12.832Z,55.78
2018-11-10T03:57:43.937Z,51.83
2018-11-10T03:58:15.046Z,54.23
2018-11-10T03:58:46.171Z,57.65
2018-11-10T03:59:17.344Z,56.20
2018-11-10T03:59:48.490Z,53.48
2018-11-10T04:00:19.653Z,51.77
2018-11-10T04:00:50.781Z,51.68
2018-11-10T04:01:21.902Z,54.35
2018-11-10T04:01:53.019Z,52.78
2018-11-10T04:02:24.155Z,50.25
2018-11-10T04:02:55.359Z,49.95
2018-11-10T04:03:26.476Z,48.00
2018-11-10T04:03:57.602Z,49.00
2018-11-10T04:04:28.759Z,48.80
2018-11-10T04:04:59.887Z,50.10
2018-11-10T04:05:31.143Z,51.68
2018-11-10T04:06:02.272Z,50.08
2018-11-10T04:06:33.457Z,50.43
2018-11-10T04:07:04.574Z,48.42
2018-11-10T04:07:35.715Z,45.20
2018-11-10T04:08:06.828Z,47.15
2018-11-10T04:08:37.951Z,49.05
2018-11-10T04:09:09.062Z,50.80
2018-11-10T04:09:40.220Z,48.73
2018-11-10T04:10:11.322Z,47.70
2018-11-10T04:10:42.463Z,49.30
2018-11-10T04:11:13.575Z,49.40
2018-11-10T04:11:44.711Z,47.55
2018-11-10T04:12:15.822Z,47.88
2018-11-10T04:12:46.937Z,50.35
2018-11-10T04:13:18.094Z,50.08
2018-11-10T04:13:49.204Z,51.28
2018-11-10T04:14:20.362Z,49.33
2018-11-10T04:14:51.526Z,49.63
2018-11-10T04:15:22.635Z,50.28
2018-11-10T04:15:53.761Z,51.23
2018-11-10T04:16:24.876Z,51.75
2018-11-10T04:16:56.998Z,50.05
2018-11-10T04:17:28.121Z,51.20
2018-11-10T04:17:59.254Z,52.75
2018-11-10T04:18:30.379Z,50.67
2018-11-10T04:19:01.485Z,49.58
2018-11-10T04:19:32.650Z,50.00
2018-11-10T04:20:03.835Z,51.45
2018-11-10T04:20:35.755Z,49.65
2018-11-10T04:21:06.857Z,51.75
2018-11-10T04:21:37.964Z,51.48
2018-11-10T04:22:09.066Z,52.55
2018-11-10T04:22:40.202Z,52.43
2018-11-10T04:23:11.325Z,48.90
2018-11-10T04:23:42.498Z,49.67
2018-11-10T04:24:13.647Z,47.53
2018-11-10T04:24:44.796Z,49.98
2018-11-10T04:25:15.910Z,50.52
2018-11-10T04:25:47.056Z,47.50
2018-11-10T04:26:18.194Z,48.58
2018-11-10T04:26:49.330Z,52.03
2018-11-10T04:27:20.917Z,51.98
2018-11-10T04:27:52.090Z,53.58
2018-11-10T04:28:23.235Z,56.20
2018-11-10T04:28:54.356Z,53.75
2018-11-10T04:29:25.459Z,52.15
2018-11-10T04:29:56.562Z,51.73
2018-11-10T04:30:27.693Z,53.33
2018-11-10T04:30:58.817Z,47.67
2018-11-10T04:31:29.955Z,51.60
2018-11-10T04:32:01.103Z,48.80
2018-11-10T04:32:32.234Z,44.23
2018-11-10T04:33:03.422Z,43.00
2018-11-10T04:33:34.538Z,47.53
2018-11-10T04:34:05.675Z,46.40
2018-11-10T04:34:36.804Z,46.00
2018-11-10T04:35:07.935Z,45.12
2018-11-10T04:35:39.051Z,46.10
2018-11-10T04:36:10.165Z,46.40
2018-11-10T04:36:41.296Z,42.85
2018-11-10T04:37:12.452Z,45.92
2018-11-10T04:37:43.565Z,43.92
2018-11-10T04:38:14.672Z,43.23
2018-11-10T04:38:45.765Z,43.95
2018-11-10T04:39:16.877Z,45.92
2018-11-10T04:39:47.991Z,42.58
2018-11-10T04:40:19.096Z,41.90
2018-11-10T04:40:50.263Z,43.87
2018-11-10T04:41:21.383Z,45.88
2018-11-10T04:41:52.511Z,45.23
2018-11-10T04:42:23.620Z,46.08
2018-11-10T04:42:54.766Z,47.00
2018-11-10T04:43:25.867Z,45.65
2018-11-10T04:43:57.772Z,44.75
2018-11-10T04:44:28.887Z,43.95
2018-11-10T04:44:59.990Z,42.73
2018-11-10T04:45:31.124Z,42.53
2018-11-10T04:46:02.322Z,44.55
2018-11-10T04:46:33.467Z,45.48
2018-11-10T04:47:04.588Z,40.58
2018-11-10T04:47:35.744Z,40.43
2018-11-10T04:48:06.865Z,42.50
2018-11-10T04:48:38.877Z,43.05
2018-11-10T04:49:10.016Z,43.87
2018-11-10T04:49:41.161Z,42.67
2018-11-10T04:50:12.285Z,41.92
2018-11-10T04:50:43.419Z,45.30
2018-11-10T04:51:14.619Z,44.70
2018-11-10T04:51:45.759Z,43.83
2018-11-10T04:52:16.863Z,43.42
2018-11-10T04:52:48.002Z,43.28
2018-11-10T04:53:19.169Z,43.05
2018-11-10T04:53:50.308Z,44.50
2018-11-10T04:54:21.423Z,45.67
2018-11-10T04:54:52.530Z,45.48
2018-11-10T04:55:23.664Z,43.13
2018-11-10T04:55:54.764Z,47.55
2018-11-10T04:56:25.891Z,44.35
2018-11-10T04:56:57.053Z,45.08
2018-11-10T04:57:28.174Z,45.10
2018-11-10T04:57:59.275Z,43.75
2018-11-10T04:58:30.447Z,44.95
2018-11-10T04:59:38.905Z,43.25
2018-11-10T05:00:10.106Z,43.78
2018-11-10T05:00:41.261Z,45.00
2018-11-10T05:01:12.389Z,45.25
2018-11-10T05:01:43.550Z,46.63
2018-11-10T05:02:14.675Z,46.77
2018-11-10T05:02:46.637Z,43.42
2018-11-10T05:03:17.733Z,42.60
2018-11-10T05:03:48.893Z,41.68
2018-11-10T05:04:20.031Z,41.90
2018-11-10T05:04:51.227Z,43.00
2018-11-10T05:05:22.314Z,42.85
2018-11-10T05:05:53.417Z,44.18
2018-11-10T05:06:24.542Z,43.87
2018-11-10T05:06:55.677Z,44.48
2018-11-10T05:07:26.848Z,43.95
2018-11-10T05:07:57.978Z,45.43
2018-11-10T05:08:29.116Z,44.90
2018-11-10T05:09:00.267Z,43.50
2018-11-10T05:09:31.390Z,45.20
2018-11-10T05:10:02.496Z,46.63
2018-11-10T05:10:33.604Z,45.67
2018-11-10T05:11:04.738Z,42.17
2018-11-10T05:11:35.843Z,42.48
2018-11-10T05:12:06.974Z,42.05
2018-11-10T05:12:38.094Z,42.17
2018-11-10T05:13:09.260Z,42.93
2018-11-10T05:13:40.373Z,42.33
2018-11-10T05:14:11.470Z,43.60
2018-11-10T05:14:44.781Z,41.58
2018-11-10T05:15:15.930Z,42.30
2018-11-10T05:15:47.050Z,41.73
2018-11-10T05:16:18.173Z,40.40
2018-11-10T05:16:49.308Z,41.33
2018-11-10T05:17:20.442Z,41.00
2018-11-10T05:17:51.571Z,41.50
2018-11-10T05:18:22.743Z,40.75
2018-11-10T05:18:53.932Z,39.70
2018-11-10T05:19:25.063Z,41.37
2018-11-10T05:19:56.219Z,39.15
2018-11-10T05:20:27.919Z,38.17
2018-11-10T05:20:59.044Z,40.83
2018-11-10T05:21:30.202Z,42.25
2018-11-10T05:22:01.306Z,42.88
2018-11-10T05:22:32.442Z,43.40
2018-11-10T05:23:03.582Z,41.53
2018-11-10T05:23:34.739Z,41.63
2018-11-10T05:24:05.863Z,40.52
2018-11-10T05:24:36.982Z,39.78
2018-11-10T05:25:08.103Z,39.27
2018-11-10T05:25:39.244Z,39.45
2018-11-10T05:26:10.373Z,40.40
2018-11-10T05:26:41.498Z,41.33
2018-11-10T05:27:12.609Z,40.78
2018-11-10T05:27:43.745Z,41.73
2018-11-10T05:28:14.856Z,40.40
2018-11-10T05:28:46.029Z,39.55
2018-11-10T05:29:17.154Z,40.58
2018-11-10T05:29:48.282Z,39.48
2018-11-10T05:30:19.405Z,40.60
2018-11-10T05:30:50.594Z,40.60
2018-11-10T05:31:21.696Z,38.25
2018-11-10T05:31:52.817Z,38.88
2018-11-10T05:32:23.991Z,37.65
2018-11-10T05:32:55.123Z,38.48
2018-11-10T05:33:26.303Z,40.33
2018-11-10T05:33:57.500Z,39.85
2018-11-10T05:34:28.638Z,39.42
2018-11-10T05:34:59.780Z,39.05
2018-11-10T05:35:30.882Z,40.55
2018-11-10T05:36:02.024Z,42.13
2018-11-10T05:36:33.118Z,41.55
2018-11-10T05:37:04.209Z,41.08
2018-11-10T05:37:35.334Z,40.73
2018-11-10T05:38:06.586Z,39.65
2018-11-10T05:38:37.710Z,40.15
2018-11-10T05:39:08.834Z,40.30
2018-11-10T05:39:39.965Z,41.02
2018-11-10T05:40:11.141Z,41.05
2018-11-10T05:40:42.256Z,42.20
2018-11-10T05:41:13.392Z,40.92
2018-11-10T05:41:44.521Z,40.88
2018-11-10T05:42:15.644Z,41.48
2018-11-10T05:42:46.753Z,40.75
2018-11-10T05:43:17.857Z,41.02
2018-11-10T05:43:48.982Z,41.28
2018-11-10T05:44:20.119Z,41.02
2018-11-10T05:44:51.258Z,41.25
2018-11-10T05:45:22.400Z,40.80
2018-11-10T05:45:53.530Z,39.90
2018-11-10T05:46:24.683Z,39.95
2018-11-10T05:46:55.787Z,41.83
2018-11-10T05:47:26.932Z,42.43
2018-11-10T05:47:58.050Z,40.35
2018-11-10T05:48:29.209Z,40.03
2018-11-10T05:49:00.365Z,40.92
2018-11-10T05:49:31.482Z,40.55
2018-11-10T05:50:02.640Z,40.92
2018-11-10T05:50:33.841Z,40.75
2018-11-10T05:51:05.006Z,40.92
2018-11-10T05:51:36.139Z,40.58
2018-11-10T05:52:07.253Z,41.20
2018-11-10T05:52:38.376Z,41.28
2018-11-10T05:53:09.494Z,39.55
2018-11-10T05:53:40.619Z,39.45
2018-11-10T05:54:11.740Z,40.78
2018-11-10T05:54:42.896Z,41.75
2018-11-10T05:55:14.033Z,39.30
2018-11-10T05:55:45.186Z,39.67
2018-11-10T05:56:16.306Z,40.88
2018-11-10T05:56:47.451Z,40.88
2018-11-10T05:57:18.656Z,41.30
2018-11-10T05:57:49.728Z,42.38
2018-11-10T05:58:20.877Z,42.78
2018-11-10T05:58:52.021Z,41.95
2018-11-10T05:59:23.166Z,39.60
2018-11-10T05:59:54.295Z,40.23
2018-11-10T06:00:25.450Z,41.13
2018-11-10T06:00:56.629Z,40.17
2018-11-10T06:01:27.741Z,40.12
2018-11-10T06:01:58.855Z,41.60
2018-11-10T06:02:30.008Z,41.75
2018-11-10T06:03:01.162Z,41.30
2018-11-10T06:03:32.280Z,41.35
2018-11-10T06:04:03.410Z,40.78
2018-11-10T06:04:34.518Z,39.78
2018-11-10T06:05:05.669Z,40.48
2018-11-10T06:05:36.788Z,39.38
2018-11-10T06:06:07.952Z,39.80
2018-11-10T06:06:39.061Z,40.20
2018-11-10T06:07:10.181Z,39.23
2018-11-10T06:07:42.540Z,39.83
2018-11-10T06:08:13.667Z,42.15
2018-11-10T06:08:44.789Z,39.45
2018-11-10T06:09:15.963Z,39.42
2018-11-10T06:09:47.179Z,40.17
2018-11-10T06:10:18.406Z,39.83
2018-11-10T06:10:49.382Z,41.10
2018-11-10T06:11:20.554Z,40.33
2018-11-10T06:11:51.675Z,40.12
2018-11-10T06:12:22.783Z,39.63
2018-11-10T06:12:53.967Z,39.67
2018-11-10T06:13:25.042Z,41.50
2018-11-10T06:13:56.176Z,40.40
2018-11-10T06:14:27.295Z,41.42
2018-11-10T06:14:58.418Z,40.25
2018-11-10T06:15:29.547Z,40.67
2018-11-10T06:16:00.717Z,41.85
2018-11-10T06:16:31.883Z,43.05
2018-11-10T06:17:03.014Z,41.70
2018-11-10T06:17:34.169Z,41.20
2018-11-10T06:18:05.276Z,39.27
2018-11-10T06:18:36.455Z,39.80
2018-11-10T06:19:07.589Z,39.60
2018-11-10T06:19:38.694Z,39.08
2018-11-10T06:20:09.849Z,40.15
2018-11-10T06:20:40.964Z,40.73
2018-11-10T06:21:12.088Z,39.15
2018-11-10T06:21:43.279Z,39.08
2018-11-10T06:22:14.392Z,38.63
2018-11-10T06:22:45.519Z,40.15
2018-11-10T06:23:16.647Z,40.12
2018-11-10T06:23:47.781Z,39.10
2018-11-10T06:24:18.886Z,39.85
2018-11-10T06:24:50.022Z,36.98
2018-11-10T06:25:21.177Z,39.53
2018-11-10T06:25:52.338Z,40.38
2018-11-10T06:26:23.485Z,39.33
2018-11-10T06:26:54.660Z,40.40
2018-11-10T06:27:25.818Z,38.78
2018-11-10T06:27:56.925Z,38.75
2018-11-10T06:28:28.036Z,39.27
2018-11-10T06:28:59.136Z,39.18
2018-11-10T06:29:30.268Z,39.67
2018-11-10T06:30:01.399Z,36.35
2018-11-10T06:30:32.553Z,34.27
2018-11-10T06:31:03.679Z,37.40
2018-11-10T06:31:34.788Z,37.75
2018-11-10T06:32:05.934Z,37.23
2018-11-10T06:32:37.147Z,38.08
2018-11-10T06:33:08.242Z,35.40
2018-11-10T06:33:39.356Z,36.80
2018-11-10T06:34:11.199Z,38.73
2018-11-10T06:34:42.362Z,37.48
2018-11-10T06:35:13.490Z,38.05
2018-11-10T06:35:44.616Z,37.85
2018-11-10T06:36:15.880Z,35.63
2018-11-10T06:36:46.992Z,35.30
2018-11-10T06:37:18.139Z,35.88
2018-11-10T06:37:49.305Z,36.70
2018-11-10T06:38:20.426Z,36.13
2018-11-10T06:38:51.576Z,35.85
2018-11-10T06:39:22.694Z,36.98
2018-11-10T06:39:53.832Z,36.35
2018-11-10T06:40:24.930Z,36.88
2018-11-10T06:40:56.045Z,35.52
2018-11-10T06:41:27.182Z,35.92
2018-11-10T06:41:58.342Z,36.83